createdAt,value
2023-01-02T00:02:10.211Z,101773.50
2023-01-02T00:05:12.687Z,101773.28
2023-01-02T00:08:16.916Z,101782.16
2023-01-02T00:11:19.578Z,101773.78
2023-01-02T00:14:22.057Z,101774.91
2023-01-02T00:17:25.181Z,101769.13
2023-01-02T00:20:27.995Z,101785.25
2023-01-02T00:23:31.213Z,101776.22
2023-01-02T00:26:33.606Z,101792.69
2023-01-02T00:29:36.138Z,101775.91
2023-01-02T00:32:38.623Z,101775.69
2023-01-02T00:35:41.027Z,101768.41
2023-01-02T00:38:43.489Z,101777.66
2023-01-02T00:41:45.983Z,101785.03
2023-01-02T00:44:48.411Z,101774.81
2023-01-02T00:47:50.842Z,101766.09
2023-01-02T00:50:55.415Z,101754.75
2023-01-02T00:53:57.872Z,101765.53
2023-01-02T00:57:00.316Z,101758.34
2023-01-02T01:00:03.922Z,101782.41
2023-01-02T01:03:06.843Z,101767.44
2023-01-02T01:06:10.740Z,101757.25
2023-01-02T01:09:13.685Z,101776.28
2023-01-02T01:12:16.231Z,101772.53
2023-01-02T01:15:18.711Z,101765.09
2023-01-02T01:18:21.088Z,101772.47
2023-01-02T01:21:23.692Z,101763.31
2023-01-02T01:24:26.531Z,101757.50
2023-01-02T01:27:29.034Z,101748.56
2023-01-02T01:30:33.312Z,101747.25
2023-01-02T01:33:36.085Z,101738.03
2023-01-02T01:36:38.581Z,101733.63
2023-01-02T01:39:41.027Z,101733.13
2023-01-02T01:42:43.487Z,101741.06
2023-01-02T01:45:46.056Z,101744.78
2023-01-02T01:48:51.385Z,101738.47
2023-01-02T01:51:57.871Z,101732.09
2023-01-02T01:55:05.029Z,101710.50
2023-01-02T01:58:22.514Z,101717.88
2023-01-02T02:01:25.118Z,101727.59
2023-01-02T02:04:27.734Z,101707.88
2023-01-02T02:07:30.815Z,101726.03
2023-01-02T02:10:33.281Z,101720.78
2023-01-02T02:13:35.829Z,101714.97
2023-01-02T02:17:02.384Z,101712.56
2023-01-02T02:20:29.963Z,101725.25
2023-01-02T02:23:43.717Z,101703.41
2023-01-02T02:27:07.886Z,101720.78
2023-01-02T02:30:24.808Z,101713.34
2023-01-02T02:33:42.159Z,101696.19
2023-01-02T02:36:55.061Z,101718.88
2023-01-02T02:40:18.935Z,101711.56
2023-01-02T02:43:58.696Z,101700.50
2023-01-02T02:47:14.811Z,101697.38
2023-01-02T02:50:23.476Z,101694.22
2023-01-02T02:53:29.184Z,101684.72
2023-01-02T02:56:31.759Z,101681.56
2023-01-02T02:59:36.455Z,101678.69
2023-01-02T03:02:39.077Z,101693.44
2023-01-02T03:05:43.546Z,101668.41
2023-01-02T03:09:26.302Z,101692.66
2023-01-02T03:12:39.206Z,101679.75
2023-01-02T03:15:49.231Z,101681.06
2023-01-02T03:19:07.142Z,101679.75
2023-01-02T03:22:17.377Z,101673.44
2023-01-02T03:25:21.217Z,101666.31
2023-01-02T03:28:26.485Z,101662.66
2023-01-02T03:31:30.952Z,101666.88
2023-01-02T03:34:34.651Z,101666.59
2023-01-02T03:37:41.494Z,101668.44
2023-01-02T03:40:47.395Z,101666.06
2023-01-02T03:43:56.561Z,101674.75
2023-01-02T03:47:29.786Z,101692.38
2023-01-02T03:50:38.877Z,101678.94
2023-01-02T03:53:41.622Z,101658.34
2023-01-02T03:56:57.487Z,101689.19
2023-01-02T04:00:10.739Z,101694.41
2023-01-02T04:03:21.076Z,101705.25
2023-01-02T04:06:30.934Z,101690.75
2023-01-02T04:09:34.751Z,101704.41
2023-01-02T04:12:38.883Z,101694.66
2023-01-02T04:15:42.015Z,101696.75
2023-01-02T04:18:49.078Z,101699.38
2023-01-02T04:21:54.674Z,101703.09
2023-01-02T04:25:03.575Z,101695.22
2023-01-02T04:28:12.946Z,101694.16
2023-01-02T04:31:16.687Z,101715.03
2023-01-02T04:34:19.982Z,101690.56
2023-01-02T04:37:29.726Z,101711.09
2023-01-02T04:40:38.229Z,101707.66
2023-01-02T04:43:40.810Z,101705.81
2023-01-02T04:46:43.343Z,101687.16
2023-01-02T04:49:45.753Z,101674.78
2023-01-02T04:52:48.221Z,101697.94
2023-01-02T04:55:56.793Z,101704.25
2023-01-02T04:58:59.318Z,101678.19
2023-01-02T05:02:02.213Z,101702.41
2023-01-02T05:05:05.698Z,101690.56
2023-01-02T05:08:13.864Z,101675.53
2023-01-02T05:11:19.737Z,101693.72
2023-01-02T05:14:22.153Z,101686.34
2023-01-02T05:17:24.614Z,101682.94
2023-01-02T05:20:28.984Z,101686.34
2023-01-02T05:23:49.817Z,101672.94
2023-01-02T05:26:52.377Z,101682.16
2023-01-02T05:29:54.852Z,101683.44
2023-01-02T05:32:57.249Z,101690.31
2023-01-02T05:35:59.679Z,101673.19
2023-01-02T05:39:02.128Z,101701.13
2023-01-02T05:42:04.648Z,101687.41
2023-01-02T05:45:07.753Z,101685.53
2023-01-02T05:48:10.239Z,101680.06
2023-01-02T05:51:14.828Z,101686.91
2023-01-02T05:54:17.304Z,101685.34
2023-01-02T05:57:19.693Z,101700.59
2023-01-02T06:00:23.347Z,101680.31
2023-01-02T06:03:25.981Z,101680.03
2023-01-02T06:06:38.295Z,101695.84
2023-01-02T06:09:41.718Z,101685.34
2023-01-02T06:12:44.207Z,101662.63
2023-01-02T06:15:46.619Z,101681.91
2023-01-02T06:18:49.784Z,101690.06
2023-01-02T06:21:52.276Z,101692.16
2023-01-02T06:24:54.726Z,101683.75
2023-01-02T06:27:57.149Z,101703.75
2023-01-02T06:31:11.356Z,101701.63
2023-01-02T06:34:13.814Z,101705.06
2023-01-02T06:37:16.223Z,101709.25
2023-01-02T06:40:18.672Z,101704.78
2023-01-02T06:43:21.527Z,101691.63
2023-01-02T06:46:24.301Z,101700.03
2023-01-02T06:49:26.683Z,101695.28
2023-01-02T06:52:29.311Z,101693.97
2023-01-02T06:55:31.745Z,101675.78
2023-01-02T06:58:35.664Z,101675.25
2023-01-02T07:01:38.150Z,101708.38
2023-01-02T07:04:40.649Z,101708.13
2023-01-02T07:07:43.090Z,101699.44
2023-01-02T07:10:50.981Z,101706.03
2023-01-02T07:13:55.583Z,101709.22
2023-01-02T07:16:58.082Z,101709.75
2023-01-02T07:20:02.193Z,101710.00
2023-01-02T07:23:05.038Z,101710.50
2023-01-02T07:26:08.029Z,101710.00
2023-01-02T07:29:10.471Z,101717.34
2023-01-02T07:32:12.999Z,101723.38
2023-01-02T07:35:15.974Z,101726.81
2023-01-02T07:38:18.526Z,101712.03
2023-01-02T07:41:24.018Z,101723.84
2023-01-02T07:44:26.411Z,101704.09
2023-01-02T07:47:28.831Z,101698.56
2023-01-02T07:50:35.698Z,101721.41
2023-01-02T07:53:38.900Z,101725.84
2023-01-02T07:56:41.348Z,101713.03
2023-01-02T07:59:47.154Z,101708.53
2023-01-02T08:02:55.008Z,101737.25
2023-01-02T08:06:11.479Z,101727.75
2023-01-02T08:09:13.935Z,101715.94
2023-01-02T08:12:16.395Z,101723.78
2023-01-02T08:15:18.867Z,101720.34
2023-01-02T08:18:21.300Z,101715.81
2023-01-02T08:21:25.285Z,101712.34
2023-01-02T08:24:27.705Z,101708.66
2023-01-02T08:27:30.199Z,101716.81
2023-01-02T08:30:32.818Z,101698.09
2023-01-02T08:33:35.420Z,101718.69
2023-01-02T08:36:37.783Z,101707.03
2023-01-02T08:39:40.216Z,101689.16
2023-01-02T08:42:43.253Z,101727.34
2023-01-02T08:45:45.719Z,101714.31
2023-01-02T08:48:48.206Z,101712.38
2023-01-02T08:51:50.670Z,101731.00
2023-01-02T08:54:53.081Z,101733.06
2023-01-02T08:57:55.479Z,101736.41
2023-01-02T09:00:57.960Z,101723.13
2023-01-02T09:04:03.740Z,101716.72
2023-01-02T09:07:08.790Z,101734.78
2023-01-02T09:10:11.687Z,101741.72
2023-01-02T09:13:15.434Z,101730.59
2023-01-02T09:16:18.066Z,101701.03
2023-01-02T09:19:20.627Z,101727.91
2023-01-02T09:22:23.093Z,101712.03
2023-01-02T09:25:25.536Z,101717.84
2023-01-02T09:28:28.918Z,101702.66
2023-01-02T09:31:31.434Z,101703.22
2023-01-02T09:34:33.864Z,101709.41
2023-01-02T09:37:38.631Z,101718.41
2023-01-02T09:40:53.018Z,101701.19
2023-01-02T09:44:13.211Z,101688.97
2023-01-02T09:47:21.648Z,101700.53
2023-01-02T09:50:29.688Z,101691.06
2023-01-02T09:53:33.461Z,101681.66
2023-01-02T09:56:40.683Z,101707.72
2023-01-02T09:59:47.318Z,101688.22
2023-01-02T10:03:11.449Z,101689.53
2023-01-02T10:06:35.569Z,101673.41
2023-01-02T10:09:48.412Z,101665.97
2023-01-02T10:13:15.158Z,101665.97
2023-01-02T10:16:21.700Z,101663.66
2023-01-02T10:19:40.851Z,101662.38
2023-01-02T10:22:49.289Z,101657.88
2023-01-02T10:25:55.791Z,101670.03
2023-01-02T10:29:25.619Z,101658.56
2023-01-02T10:32:30.041Z,101657.44
2023-01-02T10:35:40.484Z,101640.09
2023-01-02T10:38:42.989Z,101646.81
2023-01-02T10:41:50.105Z,101640.34
2023-01-02T10:44:52.870Z,101646.00
2023-01-02T10:47:55.328Z,101647.81
2023-01-02T10:51:02.388Z,101622.22
2023-01-02T10:54:09.409Z,101650.75
2023-01-02T10:57:13.679Z,101636.19
2023-01-02T11:00:23.895Z,101628.13
2023-01-02T11:03:28.065Z,101617.72
2023-01-02T11:06:39.240Z,101606.53
2023-01-02T11:09:54.470Z,101602.16
2023-01-02T11:13:02.515Z,101600.19
2023-01-02T11:16:05.436Z,101592.94
2023-01-02T11:19:20.435Z,101609.66
2023-01-02T11:22:35.401Z,101577.63
2023-01-02T11:25:42.326Z,101606.28
2023-01-02T11:28:45.011Z,101598.59
2023-01-02T11:31:57.289Z,101594.44
2023-01-02T11:35:02.474Z,101560.81
2023-01-02T11:38:05.135Z,101554.28
2023-01-02T11:41:47.224Z,101584.31
2023-01-02T11:44:52.832Z,101549.34
2023-01-02T11:48:00.732Z,101568.13
2023-01-02T11:51:03.152Z,101561.81
2023-01-02T11:54:13.207Z,101561.00
2023-01-02T11:57:44.850Z,101566.03
2023-01-02T12:00:51.268Z,101557.38
2023-01-02T12:03:54.136Z,101552.69
2023-01-02T12:07:11.974Z,101558.00
2023-01-02T12:10:48.000Z,101563.84
2023-01-02T12:13:56.109Z,101563.34
2023-01-02T12:17:12.096Z,101555.19
2023-01-02T12:20:29.010Z,101557.84
2023-01-02T12:23:43.471Z,101555.56
2023-01-02T12:27:08.488Z,101555.34
2023-01-02T12:30:19.429Z,101529.78
2023-01-02T12:33:44.823Z,101552.47
2023-01-02T12:37:11.906Z,101552.56
2023-01-02T12:40:22.972Z,101547.63
2023-01-02T12:43:53.343Z,101549.00
2023-01-02T12:47:07.488Z,101545.66
2023-01-02T12:50:41.645Z,101538.78
2023-01-02T12:54:20.401Z,101538.56
2023-01-02T12:57:31.395Z,101529.97
2023-01-02T13:00:53.158Z,101527.19
2023-01-02T13:04:01.279Z,101521.53
2023-01-02T13:07:14.115Z,101529.34
2023-01-02T13:10:19.909Z,101533.63
2023-01-02T13:13:25.832Z,101530.25
2023-01-02T13:16:28.496Z,101529.25
2023-01-02T13:19:40.748Z,101533.53
2023-01-02T13:23:20.458Z,101512.94
2023-01-02T13:26:25.308Z,101509.69
2023-01-02T13:29:30.239Z,101506.81
2023-01-02T13:32:32.951Z,101507.53
2023-01-02T13:35:37.704Z,101506.50
2023-01-02T13:38:41.296Z,101501.53
2023-01-02T13:42:10.703Z,101511.63
2023-01-02T13:45:21.155Z,101501.63
2023-01-02T13:48:40.778Z,101494.00
2023-01-02T13:51:43.614Z,101501.63
2023-01-02T13:55:31.056Z,101500.47
2023-01-02T13:58:45.012Z,101497.97
2023-01-02T14:02:18.018Z,101506.41
2023-01-02T14:05:57.816Z,101503.22
2023-01-02T14:09:07.358Z,101508.75
2023-01-02T14:12:12.675Z,101501.31
2023-01-02T14:15:20.583Z,101489.53
2023-01-02T14:18:30.872Z,101493.59
2023-01-02T14:21:36.175Z,101493.56
2023-01-02T14:24:52.742Z,101500.25
2023-01-02T14:27:58.389Z,101502.69
2023-01-02T14:31:16.633Z,101499.69
2023-01-02T14:34:24.007Z,101493.09
2023-01-02T14:37:42.564Z,101508.41
2023-01-02T14:40:46.186Z,101504.97
2023-01-02T14:43:48.885Z,101500.72
2023-01-02T14:46:51.624Z,101481.97
2023-01-02T14:49:57.814Z,101501.00
2023-01-02T14:53:06.647Z,101504.72
2023-01-02T14:56:16.330Z,101493.34
2023-01-02T14:59:40.759Z,101502.34
2023-01-02T15:02:46.134Z,101491.38
2023-01-02T15:05:56.672Z,101502.69
2023-01-02T15:09:06.070Z,101507.31
2023-01-02T15:12:47.876Z,101504.81
2023-01-02T15:15:56.012Z,101503.59
2023-01-02T15:18:59.352Z,101486.22
2023-01-02T15:22:12.762Z,101497.47
2023-01-02T15:25:30.137Z,101493.03
2023-01-02T15:28:33.754Z,101485.16
2023-01-02T15:31:39.279Z,101497.78
2023-01-02T15:34:41.849Z,101499.97
2023-01-02T15:37:46.028Z,101480.38
2023-01-02T15:40:48.885Z,101464.97
2023-01-02T15:44:12.618Z,101492.13
2023-01-02T15:47:15.528Z,101497.66
2023-01-02T15:50:29.248Z,101486.69
2023-01-02T15:53:32.948Z,101483.81
2023-01-02T15:56:37.893Z,101463.09
2023-01-02T15:59:40.862Z,101481.16
2023-01-02T16:02:44.611Z,101481.50
2023-01-02T16:05:51.658Z,101489.97
2023-01-02T16:08:56.025Z,101472.16
2023-01-02T16:12:01.619Z,101473.25
2023-01-02T16:15:04.594Z,101477.91
2023-01-02T16:18:10.828Z,101491.66
2023-01-02T16:21:14.503Z,101488.25
2023-01-02T16:24:19.122Z,101485.34
2023-01-02T16:27:28.220Z,101486.06
2023-01-02T16:30:41.180Z,101466.41
2023-01-02T16:33:45.748Z,101465.59
2023-01-02T16:36:48.262Z,101465.38
2023-01-02T16:39:51.003Z,101474.06
2023-01-02T16:43:03.217Z,101469.09
2023-01-02T16:46:09.968Z,101480.00
2023-01-02T16:49:17.009Z,101470.63
2023-01-02T16:52:19.597Z,101483.44
2023-01-02T16:55:23.544Z,101471.09
2023-01-02T16:58:26.208Z,101474.00
2023-01-02T17:01:29.627Z,101475.09
2023-01-02T17:04:32.351Z,101465.13
2023-01-02T17:07:34.750Z,101481.19
2023-01-02T17:10:42.097Z,101464.56
2023-01-02T17:13:44.761Z,101470.31
2023-01-02T17:16:47.265Z,101465.25
2023-01-02T17:19:49.707Z,101452.47
2023-01-02T17:22:52.227Z,101483.25
2023-01-02T17:25:54.628Z,101474.88
2023-01-02T17:28:57.074Z,101485.84
2023-01-02T17:31:59.512Z,101492.22
2023-01-02T17:35:03.148Z,101491.69
2023-01-02T17:38:05.667Z,101484.88
2023-01-02T17:41:08.943Z,101491.13
2023-01-02T17:44:11.346Z,101489.91
2023-01-02T17:47:57.310Z,101490.97
2023-01-02T17:50:36.762Z,101483.59
2023-01-02T17:53:42.372Z,101492.06
2023-01-02T17:56:44.867Z,101495.19
2023-01-02T17:59:47.852Z,101498.63
2023-01-02T18:02:52.163Z,101497.59
2023-01-02T18:05:54.809Z,101499.75
2023-01-02T18:08:57.574Z,101479.44
2023-01-02T18:12:00.206Z,101454.69
2023-01-02T18:15:10.441Z,101487.06
2023-01-02T18:18:14.720Z,101454.00
2023-01-02T18:21:20.413Z,101462.13
2023-01-02T18:24:27.387Z,101466.38
2023-01-02T18:27:32.698Z,101469.50
2023-01-02T18:30:35.624Z,101468.69
2023-01-02T18:33:38.150Z,101462.34
2023-01-02T18:36:41.098Z,101446.72
2023-01-02T18:39:43.554Z,101433.00
2023-01-02T18:42:49.191Z,101448.19
2023-01-02T18:45:54.684Z,101464.31
2023-01-02T18:48:57.200Z,101457.44
2023-01-02T18:52:25.187Z,101466.72
2023-01-02T18:55:34.125Z,101451.78
2023-01-02T18:58:51.413Z,101458.91
2023-01-02T19:01:55.419Z,101445.88
2023-01-02T19:04:59.268Z,101470.59
2023-01-02T19:08:31.412Z,101462.00
2023-01-02T19:11:52.813Z,101450.75
2023-01-02T19:14:55.276Z,101445.47
2023-01-02T19:18:06.270Z,101452.34
2023-01-02T19:21:08.785Z,101469.81
2023-01-02T19:24:19.999Z,101454.88
2023-01-02T19:27:36.882Z,101443.00
2023-01-02T19:30:40.698Z,101453.69
2023-01-02T19:33:59.904Z,101445.47
2023-01-02T19:37:11.430Z,101454.47
2023-01-02T19:40:19.996Z,101444.47
2023-01-02T19:43:22.874Z,101432.72
2023-01-02T19:46:25.392Z,101435.38
2023-01-02T19:49:27.952Z,101432.16
2023-01-02T19:52:30.958Z,101433.88
2023-01-02T19:55:36.567Z,101432.63
2023-01-02T19:58:39.429Z,101425.97
2023-01-02T20:01:41.997Z,101428.59
2023-01-02T20:04:45.155Z,101438.91
2023-01-02T20:07:48.192Z,101451.59
2023-01-02T20:10:51.132Z,101448.19
2023-01-02T20:13:54.092Z,101429.91
2023-01-02T20:16:56.844Z,101439.19
2023-01-02T20:19:59.424Z,101443.25
2023-01-02T20:23:01.837Z,101450.31
2023-01-02T20:26:05.107Z,101439.19
2023-01-02T20:29:07.597Z,101448.38
2023-01-02T20:32:10.366Z,101455.97
2023-01-02T20:35:13.658Z,101445.56
2023-01-02T20:38:16.436Z,101444.31
2023-01-02T20:41:19.058Z,101458.38
2023-01-02T20:44:22.191Z,101449.03
2023-01-02T20:47:24.979Z,101441.72
2023-01-02T20:50:28.363Z,101438.34
2023-01-02T20:53:31.099Z,101425.88
2023-01-02T20:56:34.691Z,101433.47
2023-01-02T20:59:38.340Z,101431.59
2023-01-02T21:02:41.750Z,101434.53
2023-01-02T21:05:44.377Z,101438.53
2023-01-02T21:08:46.945Z,101446.53
2023-01-02T21:11:49.460Z,101457.91
2023-01-02T21:14:51.896Z,101443.44
2023-01-02T21:17:54.428Z,101429.19
2023-01-02T21:21:00.933Z,101457.31
2023-01-02T21:24:04.973Z,101459.31
2023-01-02T21:27:12.783Z,101459.22
2023-01-02T21:30:17.612Z,101444.50
2023-01-02T21:33:22.169Z,101453.59
2023-01-02T21:36:24.668Z,101453.53
2023-01-02T21:39:27.840Z,101450.72
2023-01-02T21:42:30.329Z,101462.81
2023-01-02T21:45:32.714Z,101458.66
2023-01-02T21:48:35.161Z,101463.59
2023-01-02T21:51:38.279Z,101463.38
2023-01-02T21:54:40.743Z,101460.22
2023-01-02T22:01:12.765Z,101455.03
2023-01-02T22:04:15.367Z,101462.72
2023-01-02T22:07:35.915Z,101453.81
2023-01-02T22:10:43.108Z,101458.88
2023-01-02T22:13:45.691Z,101458.22
2023-01-02T22:16:48.146Z,101468.97
2023-01-02T22:19:50.574Z,101463.44
2023-01-02T22:22:53.167Z,101443.63
2023-01-02T22:25:55.734Z,101455.19
2023-01-02T22:28:58.350Z,101450.66
2023-01-02T22:32:03.742Z,101459.22
2023-01-02T22:35:07.814Z,101458.97
2023-01-02T22:38:10.621Z,101448.25
2023-01-02T22:41:13.092Z,101428.81
2023-01-02T22:44:24.157Z,101458.78
2023-01-02T22:47:31.915Z,101435.84
2023-01-02T22:50:43.316Z,101451.28
2023-01-02T22:53:45.875Z,101435.53
2023-01-02T22:56:48.330Z,101431.28
2023-01-02T22:59:50.751Z,101430.00
2023-01-02T23:02:53.394Z,101433.47
2023-01-02T23:05:56.067Z,101431.63
2023-01-02T23:08:58.494Z,101428.56
2023-01-02T23:12:00.865Z,101418.91
2023-01-02T23:15:03.474Z,101435.44
2023-01-02T23:18:24.178Z,101438.41
2023-01-02T23:21:27.520Z,101426.88
2023-01-02T23:24:35.776Z,101426.63
2023-01-02T23:27:38.235Z,101417.53
2023-01-02T23:30:41.438Z,101427.25
2023-01-02T23:33:43.951Z,101433.94
2023-01-02T23:36:46.485Z,101415.63
2023-01-02T23:39:49.024Z,101413.72
2023-01-02T23:42:51.522Z,101436.00
2023-01-02T23:45:54.559Z,101429.94
2023-01-02T23:48:58.166Z,101421.81
2023-01-02T23:52:00.714Z,101407.09
2023-01-02T23:55:03.171Z,101422.34
2023-01-02T23:58:05.774Z,101412.50
